KPGD/PGD METAR and TAF weather

Enter ICAO airport designator
Station Type Date Time Source
KPGD METAR 2020/04/06 10:14 UTC NOAA

KPGD 061014Z 03007KT 9SM OVC004 19/19 A3002 RMK AO2 T01890189


Station Type Date Time Source
KPGD Decoded METAR 2020/04/06 10:14 UTC NOAA

PUNTA GORDA CHARLOTTE COUNTY, FL, United States (KPGD) 26-55N 82-00W 7M
Apr 06, 2020 - 06:14 AM EDT / 2020.04.06 1014 UTC
Wind: from the NNE (030 degrees) at 8 MPH (7 KT):0
Visibility: 9 mile(s):0
Sky conditions: overcast
Temperature: 66.0 F (18.9 C)
Dew Point: 66.0 F (18.9 C)
Relative Humidity: 100%
Pressure (altimeter): 30.02 in. Hg (1016 hPa)
ob: KPGD 061014Z 03007KT 9SM OVC004 19/19 A3002 RMK AO2 T01890189
cycle: 10

Station Type Date Time Source
KPGD TAF 2020/04/06 10:40 UTC NOAA

TAF
AMD KPGD 060938Z 0610/0706 04008KT P6SM SCT006 SCT015 OVC035
TEMPO 0610/0612 BKN005
FM061200 04006KT P6SM SCT007 BKN015
FM061800 01010KT P6SM SCT025 BKN050
FM070000 06009KT P6SM OVC050

Example: see airport list